sensor_id;sensor_type;location;lat;lon;timestamp;pressure;altitude;pressure_sealevel;temperature;humidity
69713;BME280;56980;51.826;4.424;2022-11-10T00:00:28;101753.34;;;11.36;82.09
69713;BME280;56980;51.826;4.424;2022-11-10T00:02:54;101780.53;;;11.33;83.84
69713;BME280;56980;51.826;4.424;2022-11-10T00:05:24;101804.31;;;11.45;83.43
69713;BME280;56980;51.826;4.424;2022-11-10T00:07:49;101810.81;;;11.51;84.31
69713;BME280;56980;51.826;4.424;2022-11-10T00:10:15;101815.25;;;11.61;84.63
69713;BME280;56980;51.826;4.424;2022-11-10T00:12:40;101819.00;;;11.67;83.97
69713;BME280;56980;51.826;4.424;2022-11-10T00:15:08;101801.31;;;11.59;83.57
69713;BME280;56980;51.826;4.424;2022-11-10T00:17:52;101800.22;;;11.76;83.28
69713;BME280;56980;51.826;4.424;2022-11-10T00:20:17;101798.69;;;11.75;83.02
69713;BME280;56980;51.826;4.424;2022-11-10T00:22:43;101824.50;;;11.83;82.60
69713;BME280;56980;51.826;4.424;2022-11-10T00:25:08;101809.81;;;11.61;82.82
69713;BME280;56980;51.826;4.424;2022-11-10T00:27:34;101809.16;;;11.73;82.50
69713;BME280;56980;51.826;4.424;2022-11-10T00:29:59;101809.81;;;11.61;82.55
69713;BME280;56980;51.826;4.424;2022-11-10T00:32:25;101821.66;;;11.71;82.02
69713;BME280;56980;51.826;4.424;2022-11-10T00:34:50;101830.09;;;11.76;82.20
69713;BME280;56980;51.826;4.424;2022-11-10T00:37:16;101810.09;;;11.47;83.41
69713;BME280;56980;51.826;4.424;2022-11-10T00:39:41;101820.13;;;11.50;83.27
69713;BME280;56980;51.826;4.424;2022-11-10T00:42:07;101834.59;;;11.63;83.31
69713;BME280;56980;51.826;4.424;2022-11-10T00:44:32;101822.19;;;11.62;83.34
69713;BME280;56980;51.826;4.424;2022-11-10T00:46:58;101825.88;;;11.52;83.77
69713;BME280;56980;51.826;4.424;2022-11-10T00:49:24;101830.50;;;11.55;83.97
69713;BME280;56980;51.826;4.424;2022-11-10T00:51:50;101834.47;;;11.50;83.79
69713;BME280;56980;51.826;4.424;2022-11-10T00:54:16;101831.47;;;11.45;83.62
69713;BME280;56980;51.826;4.424;2022-11-10T00:56:41;101841.34;;;11.55;83.46
69713;BME280;56980;51.826;4.424;2022-11-10T00:59:06;101839.94;;;11.67;83.17
69713;BME280;56980;51.826;4.424;2022-11-10T01:01:32;101847.19;;;11.73;82.37
69713;BME280;56980;51.826;4.424;2022-11-10T01:03:57;101837.47;;;11.56;83.09
69713;BME280;56980;51.826;4.424;2022-11-10T01:06:23;101844.06;;;11.55;82.87
69713;BME280;56980;51.826;4.424;2022-11-10T01:08:48;101849.34;;;11.62;82.95
69713;BME280;56980;51.826;4.424;2022-11-10T01:11:16;101841.88;;;11.66;82.74
69713;BME280;56980;51.826;4.424;2022-11-10T01:13:43;101853.59;;;11.63;82.63
69713;BME280;56980;51.826;4.424;2022-11-10T01:16:14;101850.53;;;11.61;83.06
69713;BME280;56980;51.826;4.424;2022-11-10T01:18:41;101833.88;;;11.59;82.63
69713;BME280;56980;51.826;4.424;2022-11-10T01:21:07;101844.28;;;11.64;82.44
69713;BME280;56980;51.826;4.424;2022-11-10T01:23:34;101842.19;;;11.52;82.58
69713;BME280;56980;51.826;4.424;2022-11-10T01:26:01;101858.31;;;11.59;82.58
69713;BME280;56980;51.826;4.424;2022-11-10T01:28:28;101850.91;;;11.43;82.87
69713;BME280;56980;51.826;4.424;2022-11-10T01:33:23;101866.91;;;11.58;82.51
69713;BME280;56980;51.826;4.424;2022-11-10T01:35:48;101847.75;;;11.45;82.69
69713;BME280;56980;51.826;4.424;2022-11-10T01:38:14;101858.81;;;11.54;82.40
69713;BME280;56980;51.826;4.424;2022-11-10T01:40:39;101865.66;;;11.62;82.45
69713;BME280;56980;51.826;4.424;2022-11-10T01:43:04;101868.59;;;11.51;82.88
69713;BME280;56980;51.826;4.424;2022-11-10T01:45:47;101874.88;;;11.45;83.20
69713;BME280;56980;51.826;4.424;2022-11-10T01:49:06;101863.91;;;11.52;83.12
69713;BME280;56980;51.826;4.424;2022-11-10T01:54:40;101864.38;;;11.47;83.33
69713;BME280;56980;51.826;4.424;2022-11-10T01:57:09;101864.66;;;11.52;82.88
69713;BME280;56980;51.826;4.424;2022-11-10T01:59:43;101864.38;;;11.47;83.28
69713;BME280;56980;51.826;4.424;2022-11-10T02:02:30;101873.31;;;11.47;83.30
69713;BME280;56980;51.826;4.424;2022-11-10T02:04:58;101869.81;;;11.27;83.52
69713;BME280;56980;51.826;4.424;2022-11-10T02:07:24;101870.81;;;11.37;83.19
69713;BME280;56980;51.826;4.424;2022-11-10T02:09:52;101886.72;;;11.35;83.42
69713;BME280;56980;51.826;4.424;2022-11-10T02:12:18;101903.66;;;11.42;83.12
69713;BME280;56980;51.826;4.424;2022-11-10T02:15:02;101890.63;;;11.34;83.04
69713;BME280;56980;51.826;4.424;2022-11-10T02:17:27;101879.91;;;11.27;82.96
69713;BME280;56980;51.826;4.424;2022-11-10T02:19:57;101904.81;;;11.22;83.78
69713;BME280;56980;51.826;4.424;2022-11-10T02:22:23;101903.63;;;11.23;84.15
69713;BME280;56980;51.826;4.424;2022-11-10T02:24:48;101900.06;;;11.26;83.77
69713;BME280;56980;51.826;4.424;2022-11-10T02:27:14;101903.25;;;11.21;83.83
69713;BME280;56980;51.826;4.424;2022-11-10T02:29:39;101913.09;;;11.34;83.43
69713;BME280;56980;51.826;4.424;2022-11-10T02:32:04;101897.72;;;11.28;83.32
69713;BME280;56980;51.826;4.424;2022-11-10T02:34:30;101896.25;;;11.23;83.87
69713;BME280;56980;51.826;4.424;2022-11-10T02:36:55;101910.28;;;11.18;83.58
69713;BME280;56980;51.826;4.424;2022-11-10T02:39:20;101918.53;;;11.34;83.15
69713;BME280;56980;51.826;4.424;2022-11-10T02:41:46;101927.91;;;11.30;83.49
69713;BME280;56980;51.826;4.424;2022-11-10T02:44:11;101916.47;;;11.19;83.62
69713;BME280;56980;51.826;4.424;2022-11-10T02:46:36;101929.63;;;11.20;83.28
69713;BME280;56980;51.826;4.424;2022-11-10T02:49:02;101934.69;;;11.18;83.48
69713;BME280;56980;51.826;4.424;2022-11-10T02:51:28;101935.78;;;11.24;83.10
69713;BME280;56980;51.826;4.424;2022-11-10T02:53:53;101944.97;;;11.30;82.99
69713;BME280;56980;51.826;4.424;2022-11-10T02:56:18;101935.81;;;11.21;82.80
69713;BME280;56980;51.826;4.424;2022-11-10T02:58:44;101940.47;;;11.20;83.00
69713;BME280;56980;51.826;4.424;2022-11-10T03:01:09;101951.56;;;11.29;83.02
69713;BME280;56980;51.826;4.424;2022-11-10T03:03:34;101970.03;;;11.15;84.20
69713;BME280;56980;51.826;4.424;2022-11-10T03:06:00;101956.53;;;11.11;84.00
69713;BME280;56980;51.826;4.424;2022-11-10T03:08:25;101977.38;;;11.18;83.63
69713;BME280;56980;51.826;4.424;2022-11-10T03:10:55;101930.75;;;10.99;83.39
69713;BME280;56980;51.826;4.424;2022-11-10T03:13:22;101969.84;;;11.25;83.17
69713;BME280;56980;51.826;4.424;2022-11-10T03:15:47;101980.00;;;11.21;83.59
69713;BME280;56980;51.826;4.424;2022-11-10T03:18:13;101984.63;;;11.24;84.00
69713;BME280;56980;51.826;4.424;2022-11-10T03:20:38;101979.25;;;11.21;83.67
69713;BME280;56980;51.826;4.424;2022-11-10T03:23:05;101974.00;;;11.10;84.37
69713;BME280;56980;51.826;4.424;2022-11-10T03:25:31;101987.13;;;11.11;84.04
69713;BME280;56980;51.826;4.424;2022-11-10T03:27:57;101975.47;;;11.15;83.93
69713;BME280;56980;51.826;4.424;2022-11-10T03:30:23;101984.13;;;11.06;84.12
69713;BME280;56980;51.826;4.424;2022-11-10T03:32:48;101991.84;;;11.07;84.75
69713;BME280;56980;51.826;4.424;2022-11-10T03:35:14;101978.19;;;11.15;84.14
69713;BME280;56980;51.826;4.424;2022-11-10T03:37:40;101977.03;;;11.12;83.71
69713;BME280;56980;51.826;4.424;2022-11-10T03:40:06;101989.50;;;11.09;84.65
69713;BME280;56980;51.826;4.424;2022-11-10T03:42:32;101994.41;;;10.91;86.00
69713;BME280;56980;51.826;4.424;2022-11-10T03:44:57;101995.75;;;11.06;85.29
69713;BME280;56980;51.826;4.424;2022-11-10T03:47:22;101997.97;;;11.11;85.19
69713;BME280;56980;51.826;4.424;2022-11-10T03:49:48;102008.72;;;11.19;84.90
69713;BME280;56980;51.826;4.424;2022-11-10T03:52:14;101995.09;;;10.99;84.69
69713;BME280;56980;51.826;4.424;2022-11-10T03:54:39;102012.38;;;11.08;84.98
69713;BME280;56980;51.826;4.424;2022-11-10T03:57:04;102008.13;;;11.07;85.38
69713;BME280;56980;51.826;4.424;2022-11-10T03:59:30;102000.09;;;11.00;85.16
69713;BME280;56980;51.826;4.424;2022-11-10T04:01:55;102014.63;;;11.13;85.08
69713;BME280;56980;51.826;4.424;2022-11-10T04:04:21;102005.94;;;10.99;85.31
69713;BME280;56980;51.826;4.424;2022-11-10T04:07:05;102015.31;;;10.94;86.20
69713;BME280;56980;51.826;4.424;2022-11-10T04:09:49;102028.31;;;10.80;86.85
69713;BME280;56980;51.826;4.424;2022-11-10T04:12:14;102038.66;;;10.88;86.92
69713;BME280;56980;51.826;4.424;2022-11-10T04:14:58;102036.19;;;10.97;86.23
69713;BME280;56980;51.826;4.424;2022-11-10T04:17:48;102036.63;;;10.92;86.79
69713;BME280;56980;51.826;4.424;2022-11-10T04:20:14;102031.38;;;11.08;85.70
69713;BME280;56980;51.826;4.424;2022-11-10T04:22:39;102046.00;;;11.15;85.42
69713;BME280;56980;51.826;4.424;2022-11-10T04:25:25;102057.22;;;11.17;85.47
69713;BME280;56980;51.826;4.424;2022-11-10T04:27:50;102055.59;;;10.96;86.36
69713;BME280;56980;51.826;4.424;2022-11-10T04:30:16;102055.63;;;10.92;86.42
69713;BME280;56980;51.826;4.424;2022-11-10T04:32:41;102059.88;;;11.20;85.65
69713;BME280;56980;51.826;4.424;2022-11-10T04:35:07;102064.28;;;11.10;85.42
69713;BME280;56980;51.826;4.424;2022-11-10T04:37:32;102046.09;;;11.07;85.31
69713;BME280;56980;51.826;4.424;2022-11-10T04:39:58;102065.47;;;11.09;85.38
69713;BME280;56980;51.826;4.424;2022-11-10T04:42:23;102058.88;;;11.10;85.71
69713;BME280;56980;51.826;4.424;2022-11-10T04:44:48;102061.34;;;11.25;84.70
69713;BME280;56980;51.826;4.424;2022-11-10T04:47:14;102069.84;;;11.27;84.67
69713;BME280;56980;51.826;4.424;2022-11-10T04:49:39;102064.41;;;11.27;84.56
69713;BME280;56980;51.826;4.424;2022-11-10T04:52:04;102063.59;;;11.30;84.29
69713;BME280;56980;51.826;4.424;2022-11-10T04:54:30;102066.06;;;11.21;84.85
69713;BME280;56980;51.826;4.424;2022-11-10T04:56:55;102070.69;;;11.24;84.69
69713;BME280;56980;51.826;4.424;2022-11-10T04:59:21;102070.41;;;11.15;84.63
69713;BME280;56980;51.826;4.424;2022-11-10T05:01:46;102074.66;;;11.16;85.17
69713;BME280;56980;51.826;4.424;2022-11-10T05:04:11;102075.47;;;11.12;84.60
69713;BME280;56980;51.826;4.424;2022-11-10T05:06:37;102085.41;;;11.23;84.34
69713;BME280;56980;51.826;4.424;2022-11-10T05:09:02;102091.72;;;11.16;84.16
69713;BME280;56980;51.826;4.424;2022-11-10T05:11:27;102079.03;;;11.09;84.14
69713;BME280;56980;51.826;4.424;2022-11-10T05:13:53;102104.50;;;11.16;84.59
69713;BME280;56980;51.826;4.424;2022-11-10T05:16:18;102099.69;;;11.27;84.06
69713;BME280;56980;51.826;4.424;2022-11-10T05:18:44;102083.97;;;11.15;83.92
69713;BME280;56980;51.826;4.424;2022-11-10T05:21:09;102082.72;;;11.23;83.60
69713;BME280;56980;51.826;4.424;2022-11-10T05:23:35;102093.06;;;11.31;83.37
69713;BME280;56980;51.826;4.424;2022-11-10T05:26:14;102098.63;;;11.21;83.84
69713;BME280;56980;51.826;4.424;2022-11-10T05:28:40;102106.59;;;11.04;84.19
69713;BME280;56980;51.826;4.424;2022-11-10T05:31:07;102117.69;;;11.17;84.32
69713;BME280;56980;51.826;4.424;2022-11-10T05:33:33;102106.97;;;11.06;84.75
69713;BME280;56980;51.826;4.424;2022-11-10T05:36:00;102108.78;;;11.17;84.25
69713;BME280;56980;51.826;4.424;2022-11-10T05:38:26;102113.38;;;11.20;83.55
69713;BME280;56980;51.826;4.424;2022-11-10T05:40:51;102113.75;;;11.18;83.85
69713;BME280;56980;51.826;4.424;2022-11-10T05:43:17;102104.22;;;11.10;84.05
69713;BME280;56980;51.826;4.424;2022-11-10T05:45:42;102111.31;;;11.00;84.65
69713;BME280;56980;51.826;4.424;2022-11-10T05:48:08;102114.28;;;11.09;84.56
69713;BME280;56980;51.826;4.424;2022-11-10T05:50:33;102118.19;;;11.08;84.22
69713;BME280;56980;51.826;4.424;2022-11-10T05:52:59;102122.78;;;11.11;84.61
69713;BME280;56980;51.826;4.424;2022-11-10T05:55:26;102126.91;;;10.93;85.44
69713;BME280;56980;51.826;4.424;2022-11-10T05:57:53;102105.97;;;10.93;85.07
69713;BME280;56980;51.826;4.424;2022-11-10T06:00:21;102115.94;;;11.03;85.54
69713;BME280;56980;51.826;4.424;2022-11-10T06:05:25;102123.69;;;11.01;85.50
69713;BME280;56980;51.826;4.424;2022-11-10T06:07:50;102126.34;;;11.05;85.45
69713;BME280;56980;51.826;4.424;2022-11-10T06:10:16;102135.59;;;11.11;85.54
69713;BME280;56980;51.826;4.424;2022-11-10T06:12:41;102128.19;;;11.11;85.57
69713;BME280;56980;51.826;4.424;2022-11-10T06:15:07;102142.97;;;11.10;85.83
69713;BME280;56980;51.826;4.424;2022-11-10T06:17:36;102148.94;;;11.25;85.10
69713;BME280;56980;51.826;4.424;2022-11-10T06:20:01;102162.97;;;11.20;85.11
69713;BME280;56980;51.826;4.424;2022-11-10T06:22:27;102155.97;;;11.23;84.69
69713;BME280;56980;51.826;4.424;2022-11-10T06:24:52;102168.38;;;11.24;84.94
69713;BME280;56980;51.826;4.424;2022-11-10T06:27:18;102168.41;;;11.20;84.99
69713;BME280;56980;51.826;4.424;2022-11-10T06:29:43;102160.13;;;11.31;84.74
69713;BME280;56980;51.826;4.424;2022-11-10T06:32:09;102159.03;;;11.25;84.68
69713;BME280;56980;51.826;4.424;2022-11-10T06:34:36;102164.22;;;11.16;84.87
69713;BME280;56980;51.826;4.424;2022-11-10T06:37:01;102164.59;;;11.14;85.00
69713;BME280;56980;51.826;4.424;2022-11-10T06:39:26;102171.50;;;11.19;84.77
69713;BME280;56980;51.826;4.424;2022-11-10T06:41:52;102184.22;;;11.25;84.96
69713;BME280;56980;51.826;4.424;2022-11-10T06:44:17;102175.44;;;11.18;85.04
69713;BME280;56980;51.826;4.424;2022-11-10T06:46:42;102181.06;;;11.30;84.74
69713;BME280;56980;51.826;4.424;2022-11-10T06:49:08;102194.75;;;11.20;84.83
69713;BME280;56980;51.826;4.424;2022-11-10T06:51:33;102193.13;;;11.26;85.29
69713;BME280;56980;51.826;4.424;2022-11-10T06:53:58;102203.22;;;11.25;85.01
69713;BME280;56980;51.826;4.424;2022-11-10T06:56:24;102200.28;;;11.12;85.41
69713;BME280;56980;51.826;4.424;2022-11-10T06:58:49;102211.41;;;11.22;84.74
69713;BME280;56980;51.826;4.424;2022-11-10T07:01:14;102219.56;;;11.18;85.47
69713;BME280;56980;51.826;4.424;2022-11-10T07:03:40;102225.53;;;11.09;85.95
69713;BME280;56980;51.826;4.424;2022-11-10T07:06:06;102232.66;;;11.27;85.48
69713;BME280;56980;51.826;4.424;2022-11-10T07:08:31;102219.09;;;10.96;85.75
69713;BME280;56980;51.826;4.424;2022-11-10T07:10:56;102238.16;;;11.20;85.43
69713;BME280;56980;51.826;4.424;2022-11-10T07:13:22;102242.06;;;11.19;85.50
69713;BME280;56980;51.826;4.424;2022-11-10T07:15:47;102236.72;;;11.11;85.62
69713;BME280;56980;51.826;4.424;2022-11-10T07:18:13;102242.88;;;11.16;85.70
69713;BME280;56980;51.826;4.424;2022-11-10T07:20:39;102239.59;;;11.31;85.36
69713;BME280;56980;51.826;4.424;2022-11-10T07:23:06;102227.13;;;11.34;84.82
69713;BME280;56980;51.826;4.424;2022-11-10T07:25:35;102233.78;;;11.29;84.94
69713;BME280;56980;51.826;4.424;2022-11-10T07:28:02;102210.47;;;11.32;84.55
69713;BME280;56980;51.826;4.424;2022-11-10T07:30:29;102225.56;;;11.36;84.94
69713;BME280;56980;51.826;4.424;2022-11-10T07:33:13;102242.34;;;11.28;85.39
69713;BME280;56980;51.826;4.424;2022-11-10T07:35:39;102241.88;;;11.33;85.35
69713;BME280;56980;51.826;4.424;2022-11-10T07:38:07;102246.22;;;11.27;85.88
69713;BME280;56980;51.826;4.424;2022-11-10T07:40:33;102251.09;;;11.39;85.82
69713;BME280;56980;51.826;4.424;2022-11-10T07:42:58;102249.94;;;11.40;85.19
69713;BME280;56980;51.826;4.424;2022-11-10T07:45:25;102252.16;;;11.48;85.31
69713;BME280;56980;51.826;4.424;2022-11-10T07:47:50;102261.84;;;11.49;85.13
69713;BME280;56980;51.826;4.424;2022-11-10T07:50:18;102264.75;;;11.62;84.09
69713;BME280;56980;51.826;4.424;2022-11-10T07:52:44;102270.34;;;11.51;84.94
69713;BME280;56980;51.826;4.424;2022-11-10T07:55:09;102258.63;;;11.58;85.16
69713;BME280;56980;51.826;4.424;2022-11-10T07:57:35;102260.47;;;11.65;84.57
69713;BME280;56980;51.826;4.424;2022-11-10T08:00:00;102263.94;;;11.65;84.46
69713;BME280;56980;51.826;4.424;2022-11-10T08:02:26;102259.38;;;11.59;84.73
69713;BME280;56980;51.826;4.424;2022-11-10T08:04:51;102277.16;;;11.63;84.83
69713;BME280;56980;51.826;4.424;2022-11-10T08:07:17;102279.13;;;11.63;84.90
69713;BME280;56980;51.826;4.424;2022-11-10T08:09:42;102293.22;;;11.81;84.63
69713;BME280;56980;51.826;4.424;2022-11-10T08:12:07;102287.50;;;11.72;84.84
69713;BME280;56980;51.826;4.424;2022-11-10T08:14:33;102288.28;;;11.72;85.45
69713;BME280;56980;51.826;4.424;2022-11-10T08:16:58;102301.25;;;11.92;84.80
69713;BME280;56980;51.826;4.424;2022-11-10T08:19:23;102303.97;;;11.92;85.00
69713;BME280;56980;51.826;4.424;2022-11-10T08:21:49;102305.75;;;12.02;84.48
69713;BME280;56980;51.826;4.424;2022-11-10T08:24:14;102309.78;;;12.17;84.06
69713;BME280;56980;51.826;4.424;2022-11-10T08:26:40;102327.28;;;12.16;84.28
69713;BME280;56980;51.826;4.424;2022-11-10T08:29:05;102324.47;;;12.19;83.82
69713;BME280;56980;51.826;4.424;2022-11-10T08:31:33;102321.38;;;12.21;84.15
69713;BME280;56980;51.826;4.424;2022-11-10T08:33:59;102325.50;;;12.29;83.54
69713;BME280;56980;51.826;4.424;2022-11-10T08:36:24;102333.38;;;12.23;84.02
69713;BME280;56980;51.826;4.424;2022-11-10T08:38:50;102320.28;;;12.15;84.14
69713;BME280;56980;51.826;4.424;2022-11-10T08:41:15;102326.78;;;12.21;84.05
69713;BME280;56980;51.826;4.424;2022-11-10T08:43:41;102336.66;;;12.11;84.81
69713;BME280;56980;51.826;4.424;2022-11-10T08:46:06;102331.06;;;12.22;84.23
69713;BME280;56980;51.826;4.424;2022-11-10T08:48:32;102337.66;;;12.21;83.80
69713;BME280;56980;51.826;4.424;2022-11-10T08:50:59;102329.97;;;12.16;83.83
69713;BME280;56980;51.826;4.424;2022-11-10T08:53:25;102337.97;;;12.26;83.97
69713;BME280;56980;51.826;4.424;2022-11-10T08:55:51;102336.91;;;12.20;84.21
69713;BME280;56980;51.826;4.424;2022-11-10T08:58:22;102332.97;;;12.25;83.96
69713;BME280;56980;51.826;4.424;2022-11-10T09:00:48;102329.09;;;12.22;84.04
69713;BME280;56980;51.826;4.424;2022-11-10T09:05:41;102338.16;;;12.39;83.50
69713;BME280;56980;51.826;4.424;2022-11-10T09:08:08;102336.63;;;12.38;83.56
69713;BME280;56980;51.826;4.424;2022-11-10T09:10:36;102329.94;;;12.43;83.17
69713;BME280;56980;51.826;4.424;2022-11-10T09:13:03;102330.59;;;12.50;82.97
69713;BME280;56980;51.826;4.424;2022-11-10T09:15:30;102336.16;;;12.43;83.58
69713;BME280;56980;51.826;4.424;2022-11-10T09:17:57;102330.59;;;12.50;82.92
69713;BME280;56980;51.826;4.424;2022-11-10T09:20:24;102341.50;;;12.50;83.71
69713;BME280;56980;51.826;4.424;2022-11-10T09:22:50;102339.84;;;12.56;82.64
69713;BME280;56980;51.826;4.424;2022-11-10T09:25:15;102341.25;;;12.64;82.88
69713;BME280;56980;51.826;4.424;2022-11-10T09:27:42;102345.50;;;12.65;83.31
69713;BME280;56980;51.826;4.424;2022-11-10T09:30:08;102358.50;;;12.78;82.79
69713;BME280;56980;51.826;4.424;2022-11-10T09:32:34;102346.69;;;12.64;82.96
69713;BME280;56980;51.826;4.424;2022-11-10T09:34:59;102363.22;;;12.74;82.98
69713;BME280;56980;51.826;4.424;2022-11-10T09:37:25;102372.13;;;12.78;82.87
69713;BME280;56980;51.826;4.424;2022-11-10T09:39:51;102378.72;;;12.77;82.68
69713;BME280;56980;51.826;4.424;2022-11-10T09:42:33;102386.38;;;12.85;83.01
69713;BME280;56980;51.826;4.424;2022-11-10T09:45:06;102393.84;;;13.01;82.30
69713;BME280;56980;51.826;4.424;2022-11-10T09:47:46;102390.28;;;12.84;83.19
69713;BME280;56980;51.826;4.424;2022-11-10T09:50:53;102389.94;;;13.02;82.83
69713;BME280;56980;51.826;4.424;2022-11-10T09:53:36;102395.03;;;13.23;81.94
69713;BME280;56980;51.826;4.424;2022-11-10T09:56:04;102385.75;;;13.40;81.60
69713;BME280;56980;51.826;4.424;2022-11-10T09:58:41;102375.84;;;13.50;80.98
69713;BME280;56980;51.826;4.424;2022-11-10T10:01:12;102404.00;;;13.43;81.90
69713;BME280;56980;51.826;4.424;2022-11-10T10:03:47;102406.09;;;13.56;81.62
69713;BME280;56980;51.826;4.424;2022-11-10T10:06:16;102416.97;;;13.75;80.97
69713;BME280;56980;51.826;4.424;2022-11-10T10:08:53;102431.31;;;13.79;81.10
69713;BME280;56980;51.826;4.424;2022-11-10T10:19:54;102465.03;;;14.05;79.39
69713;BME280;56980;51.826;4.424;2022-11-10T10:25:30;102460.97;;;14.13;78.49
69713;BME280;56980;51.826;4.424;2022-11-10T10:30:41;102465.66;;;14.13;78.47
69713;BME280;56980;51.826;4.424;2022-11-10T10:33:13;102463.88;;;14.22;78.01
69713;BME280;56980;51.826;4.424;2022-11-10T10:35:40;102453.25;;;14.28;77.87
69713;BME280;56980;51.826;4.424;2022-11-10T10:40:41;102447.78;;;14.48;77.15
69713;BME280;56980;51.826;4.424;2022-11-10T10:43:07;102458.97;;;14.34;77.46
69713;BME280;56980;51.826;4.424;2022-11-10T10:45:32;102466.03;;;14.31;77.89
69713;BME280;56980;51.826;4.424;2022-11-10T10:48:00;102453.25;;;14.48;77.18
69713;BME280;56980;51.826;4.424;2022-11-10T10:50:33;102477.03;;;14.47;76.67
69713;BME280;56980;51.826;4.424;2022-11-10T10:55:32;102473.19;;;14.25;76.88
69713;BME280;56980;51.826;4.424;2022-11-10T10:58:01;102476.84;;;14.35;76.97
69713;BME280;56980;51.826;4.424;2022-11-10T11:00:28;102483.06;;;14.39;76.48
69713;BME280;56980;51.826;4.424;2022-11-10T11:03:12;102479.75;;;14.47;75.84
69713;BME280;56980;51.826;4.424;2022-11-10T11:05:37;102490.38;;;14.42;75.98
69713;BME280;56980;51.826;4.424;2022-11-10T11:08:03;102487.34;;;14.36;75.93
69713;BME280;56980;51.826;4.424;2022-11-10T11:10:32;102476.94;;;14.31;76.41
69713;BME280;56980;51.826;4.424;2022-11-10T11:13:21;102489.69;;;14.38;76.46
69713;BME280;56980;51.826;4.424;2022-11-10T11:15:58;102477.09;;;14.24;76.08
69713;BME280;56980;51.826;4.424;2022-11-10T11:18:26;102499.69;;;14.44;75.96
69713;BME280;56980;51.826;4.424;2022-11-10T11:21:24;102507.09;;;14.44;75.78
69713;BME280;56980;51.826;4.424;2022-11-10T11:51:44;102512.44;;;14.83;74.45
69713;BME280;56980;51.826;4.424;2022-11-10T11:57:49;102521.53;;;14.60;75.45
69713;BME280;56980;51.826;4.424;2022-11-10T12:00:16;102508.53;;;14.48;75.83
69713;BME280;56980;51.826;4.424;2022-11-10T12:16:29;102527.09;;;14.89;73.81
69713;BME280;56980;51.826;4.424;2022-11-10T12:21:50;102540.53;;;15.00;74.31
69713;BME280;56980;51.826;4.424;2022-11-10T12:26:59;102538.56;;;15.00;73.66
69713;BME280;56980;51.826;4.424;2022-11-10T12:30:07;102541.59;;;15.02;73.81
69713;BME280;56980;51.826;4.424;2022-11-10T12:34:59;102533.78;;;15.04;73.32
69713;BME280;56980;51.826;4.424;2022-11-10T12:37:34;102547.00;;;15.06;73.85
69713;BME280;56980;51.826;4.424;2022-11-10T12:40:14;102530.84;;;14.95;73.50
69713;BME280;56980;51.826;4.424;2022-11-10T12:42:41;102532.59;;;15.05;73.52
69713;BME280;56980;51.826;4.424;2022-11-10T12:45:19;102515.50;;;15.18;73.16
69713;BME280;56980;51.826;4.424;2022-11-10T12:47:46;102526.19;;;15.28;73.09
69713;BME280;56980;51.826;4.424;2022-11-10T12:52:49;102527.13;;;15.22;72.82
69713;BME280;56980;51.826;4.424;2022-11-10T12:55:19;102536.50;;;15.21;73.02
69713;BME280;56980;51.826;4.424;2022-11-10T12:57:45;102536.75;;;15.26;73.09
69713;BME280;56980;51.826;4.424;2022-11-10T13:02:45;102542.63;;;15.25;72.94
69713;BME280;56980;51.826;4.424;2022-11-10T13:07:47;102538.53;;;15.33;73.06
69713;BME280;56980;51.826;4.424;2022-11-10T13:10:25;102531.81;;;15.21;72.74
69713;BME280;56980;51.826;4.424;2022-11-10T13:18:10;102524.09;;;15.49;72.07
69713;BME280;56980;51.826;4.424;2022-11-10T13:25:52;102513.09;;;15.36;71.82
69713;BME280;56980;51.826;4.424;2022-11-10T13:36:38;102506.25;;;15.44;71.65
69713;BME280;56980;51.826;4.424;2022-11-10T13:41:46;102509.69;;;15.32;71.55
69713;BME280;56980;51.826;4.424;2022-11-10T13:44:36;102500.13;;;15.24;71.73
69713;BME280;56980;51.826;4.424;2022-11-10T13:50:07;102515.31;;;15.25;71.26
69713;BME280;56980;51.826;4.424;2022-11-10T13:56:30;102517.53;;;15.30;71.50
69713;BME280;56980;51.826;4.424;2022-11-10T13:58:30;102538.53;;;15.33;71.55
69713;BME280;56980;51.826;4.424;2022-11-10T14:08:40;102557.59;;;15.53;70.56
69713;BME280;56980;51.826;4.424;2022-11-10T14:11:24;102561.41;;;15.39;70.69
69713;BME280;56980;51.826;4.424;2022-11-10T14:13:58;102556.47;;;15.34;70.43
69713;BME280;56980;51.826;4.424;2022-11-10T14:16:27;102568.75;;;15.10;71.19
69713;BME280;56980;51.826;4.424;2022-11-10T14:18:55;102571.00;;;15.15;70.93
69713;BME280;56980;51.826;4.424;2022-11-10T14:22:14;102565.88;;;15.00;71.51
69713;BME280;56980;51.826;4.424;2022-11-10T14:24:23;102542.47;;;15.16;70.78
69713;BME280;56980;51.826;4.424;2022-11-10T14:26:52;102553.72;;;14.85;71.28
69713;BME280;56980;51.826;4.424;2022-11-10T14:29:31;102579.94;;;14.99;71.57
69713;BME280;56980;51.826;4.424;2022-11-10T14:31:58;102583.84;;;14.98;71.60
69713;BME280;56980;51.826;4.424;2022-11-10T14:34:25;102592.66;;;15.05;71.02
69713;BME280;56980;51.826;4.424;2022-11-10T14:36:56;102583.84;;;14.98;71.54
69713;BME280;56980;51.826;4.424;2022-11-10T14:39:27;102593.66;;;14.95;71.32
69713;BME280;56980;51.826;4.424;2022-11-10T14:41:53;102586.91;;;14.84;72.11
69713;BME280;56980;51.826;4.424;2022-11-10T14:44:25;102590.91;;;14.95;71.46
69713;BME280;56980;51.826;4.424;2022-11-10T14:46:51;102570.34;;;14.75;71.91
69713;BME280;56980;51.826;4.424;2022-11-10T14:49:24;102602.34;;;14.90;71.33
69713;BME280;56980;51.826;4.424;2022-11-10T14:51:54;102596.88;;;14.90;71.02
69713;BME280;56980;51.826;4.424;2022-11-10T14:54:26;102597.34;;;14.69;72.15
69713;BME280;56980;51.826;4.424;2022-11-10T14:56:53;102595.31;;;14.73;71.79
69713;BME280;56980;51.826;4.424;2022-11-10T14:59:20;102596.00;;;14.77;71.60
69713;BME280;56980;51.826;4.424;2022-11-10T15:01:56;102604.19;;;14.77;71.61